createdAt,value
2023-05-09T00:01:25.423Z,101734.29
2023-05-09T00:03:52.539Z,101732.63
2023-05-09T00:06:19.890Z,101733.94
2023-05-09T00:08:46.896Z,101734.33
2023-05-09T00:11:14.049Z,101732.34
2023-05-09T00:13:42.279Z,101731.06
2023-05-09T00:16:09.505Z,101735.60
2023-05-09T00:18:37.671Z,101736.22
2023-05-09T00:21:04.761Z,101735.28
2023-05-09T00:23:31.816Z,101735.52
2023-05-09T00:25:59.487Z,101734.79
2023-05-09T00:28:26.920Z,101738.27
2023-05-09T00:30:53.996Z,101737.35
2023-05-09T00:33:20.863Z,101738.34
2023-05-09T00:35:47.990Z,101740.00
2023-05-09T00:38:14.896Z,101740.42
2023-05-09T00:40:41.967Z,101738.99
2023-05-09T00:43:08.914Z,101741.27
2023-05-09T00:45:35.851Z,101734.20
2023-05-09T00:48:03.292Z,101738.48
2023-05-09T00:50:31.381Z,101735.08
2023-05-09T00:52:58.671Z,101736.47
2023-05-09T00:55:25.615Z,101741.70
2023-05-09T00:57:52.627Z,101739.44
2023-05-09T01:00:19.644Z,101742.27
2023-05-09T01:02:48.163Z,101739.86
2023-05-09T01:05:15.480Z,101738.97
2023-05-09T01:07:48.901Z,101741.00
2023-05-09T01:10:32.601Z,101742.08
2023-05-09T01:13:04.968Z,101742.27
2023-05-09T01:15:47.238Z,101739.52
2023-05-09T01:18:17.240Z,101736.96
2023-05-09T01:20:47.154Z,101738.98
2023-05-09T01:23:45.194Z,101741.26
2023-05-09T01:26:26.340Z,101743.09
2023-05-09T01:29:27.571Z,101741.77
2023-05-09T01:31:55.335Z,101741.14
2023-05-09T01:34:22.834Z,101741.58
2023-05-09T01:36:49.932Z,101743.57
2023-05-09T01:39:17.800Z,101745.79
2023-05-09T01:41:44.750Z,101742.60
2023-05-09T01:44:12.080Z,101740.63
2023-05-09T01:46:39.505Z,101740.73
2023-05-09T01:49:07.941Z,101742.64
2023-05-09T01:51:35.638Z,101744.71
2023-05-09T01:54:02.521Z,101743.23
2023-05-09T01:56:29.481Z,101743.50
2023-05-09T01:58:56.439Z,101745.48
2023-05-09T02:01:24.048Z,101742.79
2023-05-09T02:03:52.652Z,101746.00
2023-05-09T02:06:21.003Z,101745.36
2023-05-09T02:08:48.253Z,101745.79
2023-05-09T02:11:15.168Z,101747.42
2023-05-09T02:13:42.162Z,101751.60
2023-05-09T02:16:10.472Z,101754.27
2023-05-09T02:18:37.461Z,101754.10
2023-05-09T02:21:04.456Z,101752.30
2023-05-09T02:23:31.292Z,101752.95
2023-05-09T02:25:58.150Z,101752.00
2023-05-09T02:28:25.784Z,101753.79
2023-05-09T02:30:52.668Z,101755.83
2023-05-09T02:33:19.584Z,101754.69
2023-05-09T02:35:46.634Z,101753.85
2023-05-09T02:38:13.818Z,101756.20
2023-05-09T02:40:41.474Z,101756.48
2023-05-09T02:43:08.398Z,101757.25
2023-05-09T02:45:35.482Z,101755.90
2023-05-09T02:48:03.165Z,101758.05
2023-05-09T02:50:30.387Z,101757.99
2023-05-09T02:52:57.431Z,101757.02
2023-05-09T02:55:24.478Z,101756.94
2023-05-09T02:57:58.965Z,101762.81
2023-05-09T03:00:34.012Z,101762.94
2023-05-09T03:03:01.335Z,101763.92
2023-05-09T03:05:28.643Z,101764.23
2023-05-09T03:07:55.545Z,101764.11
2023-05-09T03:10:22.848Z,101762.85
2023-05-09T03:12:49.801Z,101764.21
2023-05-09T03:15:16.852Z,101767.59
2023-05-09T03:17:45.497Z,101769.92
2023-05-09T03:20:12.985Z,101772.55
2023-05-09T03:22:39.828Z,101771.79
2023-05-09T03:25:08.614Z,101776.33
2023-05-09T03:27:35.459Z,101776.69
2023-05-09T03:30:03.766Z,101781.65
2023-05-09T03:32:31.145Z,101780.16
2023-05-09T03:34:58.240Z,101782.71
2023-05-09T03:37:27.265Z,101783.66
2023-05-09T03:39:54.827Z,101784.80
2023-05-09T03:42:22.764Z,101787.23
2023-05-09T03:44:50.003Z,101788.55
2023-05-09T03:47:17.329Z,101790.40
2023-05-09T03:49:44.334Z,101790.08
2023-05-09T03:52:11.981Z,101789.63
2023-05-09T03:54:38.927Z,101790.67
2023-05-09T03:57:05.816Z,101794.19
2023-05-09T03:59:32.718Z,101797.61
2023-05-09T04:02:00.076Z,101802.23
2023-05-09T04:04:27.638Z,101798.33
2023-05-09T04:06:55.504Z,101800.40
2023-05-09T04:09:22.748Z,101802.74
2023-05-09T04:11:49.610Z,101804.20
2023-05-09T04:14:16.584Z,101806.13
2023-05-09T04:16:43.727Z,101807.56
2023-05-09T04:19:10.753Z,101808.66
2023-05-09T04:21:38.195Z,101811.11
2023-05-09T04:24:06.165Z,101813.39
2023-05-09T04:26:38.989Z,101814.99
2023-05-09T04:29:08.049Z,101816.41
2023-05-09T04:31:35.431Z,101817.98
2023-05-09T04:34:03.232Z,101816.42
2023-05-09T04:36:34.060Z,101819.73
2023-05-09T04:39:01.358Z,101817.95
2023-05-09T04:41:29.467Z,101821.39
2023-05-09T04:43:56.581Z,101823.90
2023-05-09T04:46:25.746Z,101827.63
2023-05-09T04:48:52.881Z,101826.25
2023-05-09T04:51:20.580Z,101828.48
2023-05-09T04:53:47.540Z,101827.13
2023-05-09T04:56:15.530Z,101827.23
2023-05-09T04:58:42.735Z,101832.17
2023-05-09T05:01:10.697Z,101829.61
2023-05-09T05:03:38.484Z,101833.67
2023-05-09T05:06:06.793Z,101833.61
2023-05-09T05:08:34.022Z,101834.84
2023-05-09T05:11:01.172Z,101836.91
2023-05-09T05:13:28.473Z,101835.48
2023-05-09T05:15:58.986Z,101831.64
2023-05-09T05:18:26.107Z,101829.83
2023-05-09T05:20:53.728Z,101830.01
2023-05-09T05:23:21.021Z,101830.11
2023-05-09T05:25:51.342Z,101829.55
2023-05-09T05:28:19.224Z,101829.41
2023-05-09T05:30:46.242Z,101830.72
2023-05-09T05:33:13.103Z,101828.20
2023-05-09T05:35:40.837Z,101827.00
2023-05-09T05:38:07.817Z,101827.67
2023-05-09T05:40:34.962Z,101829.65
2023-05-09T05:43:03.393Z,101827.66
2023-05-09T05:45:31.265Z,101822.89
2023-05-09T05:47:58.791Z,101817.69
2023-05-09T05:50:26.130Z,101821.62
2023-05-09T05:52:53.378Z,101821.21
2023-05-09T05:55:20.320Z,101821.91
2023-05-09T05:57:47.985Z,101822.83
2023-05-09T06:00:16.487Z,101819.73
2023-05-09T06:02:53.446Z,101822.01
2023-05-09T06:05:35.093Z,101824.10
2023-05-09T06:08:02.081Z,101824.81
2023-05-09T06:10:28.905Z,101829.84
2023-05-09T06:12:56.025Z,101826.58
2023-05-09T06:15:23.114Z,101830.67
2023-05-09T06:17:50.214Z,101831.14
2023-05-09T06:20:17.064Z,101826.42
2023-05-09T06:22:43.967Z,101826.20
2023-05-09T06:25:10.952Z,101827.80
2023-05-09T06:27:38.607Z,101823.30
2023-05-09T06:30:23.772Z,101823.16
2023-05-09T06:32:52.959Z,101822.09
2023-05-09T06:35:19.989Z,101820.77
2023-05-09T06:37:48.606Z,101823.17
2023-05-09T06:40:16.430Z,101822.65
2023-05-09T06:42:43.343Z,101823.45
2023-05-09T06:45:10.894Z,101819.17
2023-05-09T06:47:37.831Z,101818.41
2023-05-09T06:50:05.128Z,101815.11
2023-05-09T06:52:31.998Z,101816.33
2023-05-09T06:54:58.829Z,101814.80
2023-05-09T06:57:25.702Z,101810.66
2023-05-09T06:59:52.549Z,101806.41
2023-05-09T07:02:19.656Z,101803.12
2023-05-09T07:04:46.595Z,101797.23
2023-05-09T07:07:13.444Z,101796.84
2023-05-09T07:09:40.299Z,101796.67
2023-05-09T07:12:07.371Z,101796.02
2023-05-09T07:14:34.313Z,101789.16
2023-05-09T07:17:18.264Z,101789.08
2023-05-09T07:19:48.161Z,101788.73
2023-05-09T07:22:15.150Z,101786.60
2023-05-09T07:24:42.156Z,101781.73
2023-05-09T07:27:09.099Z,101779.30
2023-05-09T07:29:35.892Z,101778.47
2023-05-09T07:32:02.819Z,101776.06
2023-05-09T07:34:29.935Z,101766.02
2023-05-09T07:36:58.905Z,101762.98
2023-05-09T07:39:26.167Z,101757.89
2023-05-09T07:41:52.977Z,101758.08
2023-05-09T07:44:19.875Z,101754.81
2023-05-09T07:46:47.011Z,101753.74
2023-05-09T07:49:13.853Z,101748.02
2023-05-09T07:51:41.523Z,101747.06
2023-05-09T07:54:10.322Z,101745.42
2023-05-09T07:56:37.393Z,101734.67
2023-05-09T07:59:04.256Z,101732.80
2023-05-09T08:01:31.119Z,101735.21
2023-05-09T08:03:58.327Z,101734.61
2023-05-09T08:06:26.465Z,101731.39
2023-05-09T08:08:53.232Z,101729.83
2023-05-09T08:11:20.201Z,101727.52
2023-05-09T08:13:48.290Z,101733.25
2023-05-09T08:16:17.554Z,101734.86
2023-05-09T08:18:44.629Z,101735.76
2023-05-09T08:21:11.532Z,101736.30
2023-05-09T08:36:14.378Z,101727.54
2023-05-09T08:38:41.559Z,101717.80
2023-05-09T08:41:08.375Z,101717.77
2023-05-09T08:43:35.602Z,101714.77
2023-05-09T08:46:06.059Z,101712.23
2023-05-09T08:48:35.953Z,101712.33
2023-05-09T08:51:04.308Z,101713.54
2023-05-09T08:53:31.798Z,101710.71
2023-05-09T08:56:00.254Z,101712.52
2023-05-09T08:58:27.352Z,101711.91
2023-05-09T09:00:55.747Z,101706.83
2023-05-09T09:03:23.706Z,101706.41
2023-05-09T09:05:50.779Z,101710.36
2023-05-09T09:08:17.901Z,101705.88
2023-05-09T09:10:47.651Z,101705.04
2023-05-09T09:13:15.512Z,101710.30
2023-05-09T09:15:44.294Z,101705.09
2023-05-09T09:18:24.321Z,101701.83
2023-05-09T09:20:59.817Z,101705.34
2023-05-09T09:23:27.379Z,101698.23
2023-05-09T09:26:02.093Z,101697.36
2023-05-09T09:28:29.213Z,101695.09
2023-05-09T09:30:56.064Z,101693.64
2023-05-09T09:33:23.918Z,101690.63
2023-05-09T09:35:51.883Z,101693.33
2023-05-09T09:38:19.833Z,101694.31
2023-05-09T09:40:56.247Z,101693.16
2023-05-09T09:43:30.244Z,101693.02
2023-05-09T09:45:57.842Z,101689.11
2023-05-09T09:48:26.609Z,101686.18
2023-05-09T09:50:57.211Z,101681.09
2023-05-09T09:53:25.471Z,101684.88
2023-05-09T09:55:53.403Z,101689.46
2023-05-09T09:58:25.154Z,101688.12
2023-05-09T10:01:12.055Z,101691.41
2023-05-09T10:03:40.268Z,101690.41
2023-05-09T10:06:11.772Z,101685.77
2023-05-09T10:08:39.726Z,101681.60
2023-05-09T10:11:07.385Z,101681.45
2023-05-09T10:13:38.439Z,101683.02
2023-05-09T10:16:05.876Z,101682.34
2023-05-09T10:18:33.150Z,101679.15
2023-05-09T10:21:02.132Z,101676.99
2023-05-09T10:23:33.180Z,101674.02
2023-05-09T10:26:21.860Z,101673.14
2023-05-09T10:28:49.857Z,101668.89
2023-05-09T10:31:23.780Z,101669.73
2023-05-09T10:33:51.086Z,101673.96
2023-05-09T10:36:20.667Z,101673.38
2023-05-09T10:38:48.814Z,101672.92
2023-05-09T10:41:19.188Z,101666.91
2023-05-09T10:43:46.081Z,101665.19
2023-05-09T10:46:13.403Z,101662.62
2023-05-09T10:48:40.377Z,101662.70
2023-05-09T10:51:08.022Z,101661.98
2023-05-09T10:53:56.337Z,101661.42
2023-05-09T10:56:23.209Z,101657.36
2023-05-09T10:58:50.088Z,101653.64
2023-05-09T11:01:28.147Z,101650.21
2023-05-09T11:03:56.160Z,101648.77
2023-05-09T11:06:45.666Z,101645.73
2023-05-09T11:09:28.945Z,101639.79
2023-05-09T11:12:17.035Z,101640.13
2023-05-09T11:14:49.013Z,101645.75
2023-05-09T11:17:28.753Z,101647.30
2023-05-09T11:20:06.767Z,101638.43
2023-05-09T11:22:42.091Z,101631.42
2023-05-09T11:25:17.248Z,101629.45
2023-05-09T11:27:49.562Z,101629.41
2023-05-09T11:30:17.928Z,101630.74
2023-05-09T11:32:59.138Z,101631.58
2023-05-09T11:35:29.077Z,101630.20
2023-05-09T11:38:00.338Z,101633.03
2023-05-09T11:40:28.190Z,101629.41
2023-05-09T11:42:58.385Z,101628.73
2023-05-09T11:45:30.193Z,101619.86
2023-05-09T11:47:57.511Z,101622.70
2023-05-09T11:50:24.511Z,101623.52
2023-05-09T11:52:51.516Z,101624.83
2023-05-09T11:55:19.938Z,101626.64
2023-05-09T11:57:49.146Z,101621.26
2023-05-09T12:00:17.342Z,101616.36
2023-05-09T12:02:44.899Z,101619.06
2023-05-09T12:05:14.281Z,101617.84
2023-05-09T12:07:41.450Z,101610.17
2023-05-09T12:10:13.788Z,101607.81
2023-05-09T12:12:45.444Z,101599.83
2023-05-09T12:15:13.978Z,101598.28
2023-05-09T12:17:43.782Z,101603.27
2023-05-09T12:20:11.273Z,101595.06
2023-05-09T12:22:38.316Z,101594.09
2023-05-09T12:25:07.535Z,101593.23
2023-05-09T12:27:38.419Z,101592.91
2023-05-09T12:30:08.720Z,101590.92
2023-05-09T12:32:36.784Z,101588.91
2023-05-09T12:35:04.054Z,101586.55
2023-05-09T12:37:32.767Z,101583.62
2023-05-09T12:40:04.873Z,101584.63
2023-05-09T12:42:32.443Z,101584.60
2023-05-09T12:44:59.464Z,101578.87
2023-05-09T12:47:28.919Z,101569.88
2023-05-09T12:50:02.167Z,101566.67
2023-05-09T12:52:39.733Z,101564.39
2023-05-09T12:55:14.098Z,101562.51
2023-05-09T12:57:41.939Z,101556.46
2023-05-09T13:00:09.883Z,101559.09
2023-05-09T13:02:37.753Z,101561.75
2023-05-09T13:05:12.236Z,101562.52
2023-05-09T13:07:46.699Z,101561.27
2023-05-09T13:10:21.366Z,101558.48
2023-05-09T13:12:49.381Z,101556.80
2023-05-09T13:15:17.171Z,101556.76
2023-05-09T13:17:44.476Z,101550.23
2023-05-09T13:20:11.402Z,101552.22
2023-05-09T13:22:38.589Z,101550.88
2023-05-09T13:25:06.429Z,101547.27
2023-05-09T13:27:33.656Z,101544.48
2023-05-09T13:30:00.601Z,101544.84
2023-05-09T13:32:28.005Z,101543.50
2023-05-09T13:34:55.414Z,101543.35
2023-05-09T13:37:22.704Z,101543.66
2023-05-09T13:39:49.617Z,101546.02
2023-05-09T13:42:19.020Z,101544.61
2023-05-09T13:44:46.173Z,101542.58
2023-05-09T13:47:12.985Z,101541.11
2023-05-09T13:49:39.965Z,101538.34
2023-05-09T13:52:06.916Z,101540.81
2023-05-09T13:54:37.338Z,101540.33
2023-05-09T13:57:04.804Z,101544.65
2023-05-09T13:59:32.166Z,101543.08
2023-05-09T14:02:00.161Z,101544.16
2023-05-09T14:04:27.910Z,101543.65
2023-05-09T14:06:58.511Z,101540.54
2023-05-09T14:09:25.457Z,101538.92
2023-05-09T14:11:53.060Z,101537.98
2023-05-09T14:14:20.898Z,101538.00
2023-05-09T14:16:48.668Z,101534.44
2023-05-09T14:19:15.919Z,101531.42
2023-05-09T14:21:43.669Z,101534.66
2023-05-09T14:24:14.345Z,101532.09
2023-05-09T14:26:42.598Z,101534.23
2023-05-09T14:29:09.496Z,101535.34
2023-05-09T14:31:37.058Z,101534.11
2023-05-09T14:34:06.200Z,101532.88
2023-05-09T14:36:33.326Z,101531.63
2023-05-09T14:39:00.299Z,101531.42
2023-05-09T14:41:27.116Z,101525.60
2023-05-09T14:43:53.977Z,101530.66
2023-05-09T14:46:21.100Z,101526.27
2023-05-09T14:48:48.107Z,101526.91
2023-05-09T14:51:14.887Z,101524.41
2023-05-09T14:53:42.152Z,101525.44
2023-05-09T14:56:09.606Z,101523.41
2023-05-09T14:58:36.548Z,101518.08
2023-05-09T15:01:04.442Z,101514.83
2023-05-09T15:03:32.002Z,101513.86
2023-05-09T15:05:59.279Z,101514.98
2023-05-09T15:08:26.396Z,101514.45
2023-05-09T15:10:53.245Z,101516.64
2023-05-09T15:13:20.496Z,101513.33
2023-05-09T15:15:47.904Z,101512.66
2023-05-09T15:18:16.668Z,101512.36
2023-05-09T15:20:43.677Z,101515.19
2023-05-09T15:23:11.732Z,101515.60
2023-05-09T15:25:40.788Z,101514.73
2023-05-09T15:28:07.688Z,101510.56
2023-05-09T15:30:38.175Z,101509.77
2023-05-09T15:33:05.517Z,101511.00
2023-05-09T15:35:32.518Z,101513.31
2023-05-09T15:38:00.007Z,101512.80
2023-05-09T15:40:28.258Z,101512.59
2023-05-09T15:42:55.094Z,101513.92
2023-05-09T15:45:22.278Z,101510.96
2023-05-09T15:47:49.176Z,101512.73
2023-05-09T15:50:16.398Z,101508.81
2023-05-09T15:52:43.611Z,101506.56
2023-05-09T15:55:11.041Z,101506.11
2023-05-09T15:57:37.908Z,101511.14
2023-05-09T16:00:05.699Z,101508.67
2023-05-09T16:02:39.569Z,101510.02
2023-05-09T16:05:07.444Z,101506.60
2023-05-09T16:07:35.832Z,101506.28
2023-05-09T16:10:03.161Z,101507.55
2023-05-09T16:12:32.801Z,101506.09
2023-05-09T16:15:00.079Z,101501.71
2023-05-09T16:17:27.110Z,101503.19
2023-05-09T16:19:55.362Z,101501.71
2023-05-09T16:22:22.313Z,101497.77
2023-05-09T16:24:49.263Z,101496.44
2023-05-09T16:27:16.712Z,101499.77
2023-05-09T16:29:43.666Z,101497.57
2023-05-09T16:32:10.810Z,101500.30
2023-05-09T16:34:37.967Z,101497.98
2023-05-09T16:37:04.894Z,101501.13
2023-05-09T16:39:32.379Z,101500.13
2023-05-09T16:41:59.659Z,101502.29
2023-05-09T16:44:26.766Z,101499.46
2023-05-09T16:46:53.914Z,101499.42
2023-05-09T16:49:20.857Z,101498.07
2023-05-09T16:51:47.827Z,101497.36
2023-05-09T16:54:14.746Z,101499.45
2023-05-09T16:56:42.415Z,101497.89
2023-05-09T16:59:09.327Z,101497.50
2023-05-09T17:01:36.325Z,101497.65
2023-05-09T17:04:06.832Z,101497.83
2023-05-09T17:06:36.861Z,101496.84
2023-05-09T17:09:03.918Z,101499.59
2023-05-09T17:11:30.776Z,101494.54
2023-05-09T17:13:57.645Z,101495.27
2023-05-09T17:16:24.666Z,101501.23
2023-05-09T17:18:52.139Z,101503.48
2023-05-09T17:21:20.440Z,101501.66
2023-05-09T17:23:47.421Z,101502.42
2023-05-09T17:26:14.475Z,101504.31
2023-05-09T17:28:41.417Z,101505.51
2023-05-09T17:31:08.344Z,101505.25
2023-05-09T17:33:35.227Z,101507.30
2023-05-09T17:36:02.757Z,101510.88
2023-05-09T17:38:30.329Z,101514.86
2023-05-09T17:40:57.317Z,101513.81
2023-05-09T17:43:24.423Z,101515.75
2023-05-09T17:45:52.577Z,101512.75
2023-05-09T17:48:20.047Z,101509.95
2023-05-09T17:50:47.196Z,101512.81
2023-05-09T17:53:14.084Z,101514.57
2023-05-09T17:55:41.807Z,101517.41
2023-05-09T17:58:08.873Z,101518.17
2023-05-09T18:00:35.840Z,101516.67
2023-05-09T18:03:04.095Z,101514.66
2023-05-09T18:05:31.336Z,101516.16
2023-05-09T18:08:01.063Z,101513.77
2023-05-09T18:10:28.829Z,101515.95
2023-05-09T18:12:56.185Z,101519.35
2023-05-09T18:15:23.056Z,101521.22
2023-05-09T18:17:50.037Z,101520.23
2023-05-09T18:20:17.120Z,101523.30
2023-05-09T18:22:44.356Z,101520.48
2023-05-09T18:25:11.577Z,101520.52
2023-05-09T18:27:38.417Z,101517.32
2023-05-09T18:30:06.887Z,101518.46
2023-05-09T18:32:34.065Z,101524.47
2023-05-09T18:35:00.927Z,101524.61
2023-05-09T18:37:28.011Z,101526.52
2023-05-09T18:39:55.071Z,101522.08
2023-05-09T18:42:22.296Z,101521.36
2023-05-09T18:44:49.451Z,101523.81
2023-05-09T18:47:16.560Z,101527.29
2023-05-09T18:49:43.420Z,101524.60
2023-05-09T18:52:10.616Z,101522.79
2023-05-09T18:54:38.329Z,101525.95
2023-05-09T18:57:05.151Z,101524.33
2023-05-09T18:59:32.354Z,101525.21
2023-05-09T19:01:59.218Z,101525.02
2023-05-09T19:04:26.283Z,101522.55
2023-05-09T19:06:53.368Z,101518.95
2023-05-09T19:09:20.410Z,101514.73
2023-05-09T19:11:47.520Z,101514.86
2023-05-09T19:14:14.321Z,101515.80
2023-05-09T19:16:41.294Z,101511.29
2023-05-09T19:19:09.860Z,101514.54
2023-05-09T19:21:36.881Z,101513.24
2023-05-09T19:24:04.777Z,101516.50
2023-05-09T19:26:31.574Z,101512.70
2023-05-09T19:29:00.300Z,101513.59
2023-05-09T19:31:27.217Z,101514.63
2023-05-09T19:33:54.274Z,101510.48
2023-05-09T19:36:21.119Z,101512.77
2023-05-09T19:38:48.043Z,101518.02
2023-05-09T19:41:15.154Z,101516.11
2023-05-09T19:43:42.271Z,101510.95
2023-05-09T19:46:09.343Z,101509.67
2023-05-09T19:48:36.173Z,101512.75
2023-05-09T19:51:03.615Z,101511.35
2023-05-09T19:53:30.764Z,101512.90
2023-05-09T19:55:57.920Z,101509.64
2023-05-09T19:58:24.695Z,101511.96
2023-05-09T20:00:51.579Z,101508.83
2023-05-09T20:03:18.646Z,101504.44
2023-05-09T20:05:45.610Z,101505.86
2023-05-09T20:08:12.565Z,101504.71
2023-05-09T20:10:39.479Z,101506.34
2023-05-09T20:13:06.882Z,101506.83
2023-05-09T20:15:33.811Z,101505.02
2023-05-09T20:18:03.664Z,101499.05
2023-05-09T20:20:33.448Z,101499.59
2023-05-09T20:23:00.353Z,101499.31
2023-05-09T20:25:27.229Z,101492.85
2023-05-09T20:27:54.012Z,101489.84
2023-05-09T20:30:21.307Z,101492.61
2023-05-09T20:32:48.136Z,101493.65
2023-05-09T20:35:15.080Z,101494.67
2023-05-09T20:37:42.067Z,101494.19
2023-05-09T20:43:17.492Z,101492.87
2023-05-09T20:45:44.470Z,101494.67
2023-05-09T20:48:11.448Z,101491.33
2023-05-09T20:50:38.277Z,101494.59
2023-05-09T20:53:05.177Z,101493.97
2023-05-09T20:55:31.956Z,101488.08
2023-05-09T20:57:58.961Z,101490.10
2023-05-09T21:00:25.768Z,101488.33
2023-05-09T21:02:56.898Z,101486.22
2023-05-09T21:05:25.238Z,101490.42
2023-05-09T21:07:52.079Z,101491.48
2023-05-09T21:10:18.917Z,101489.05
2023-05-09T21:12:45.872Z,101491.45
2023-05-09T21:15:13.996Z,101490.39
2023-05-09T21:17:40.986Z,101489.14
2023-05-09T21:20:08.652Z,101485.63
2023-05-09T21:22:35.484Z,101484.88
2023-05-09T21:25:02.332Z,101485.55
2023-05-09T21:27:32.911Z,101482.56
2023-05-09T21:29:59.736Z,101482.20
2023-05-09T21:32:28.592Z,101480.59
2023-05-09T21:34:55.800Z,101474.77
2023-05-09T21:37:22.790Z,101473.68
2023-05-09T21:39:49.629Z,101470.42
2023-05-09T21:42:16.452Z,101469.11
2023-05-09T21:44:43.319Z,101467.97
2023-05-09T21:47:11.762Z,101463.36
2023-05-09T21:49:38.884Z,101457.39
2023-05-09T21:52:06.521Z,101455.73
2023-05-09T21:54:33.370Z,101452.89
2023-05-09T21:57:00.299Z,101453.73
2023-05-09T21:59:27.348Z,101453.46
2023-05-09T22:01:54.253Z,101450.44
2023-05-09T22:04:21.345Z,101448.08
2023-05-09T22:06:48.300Z,101447.32
2023-05-09T22:09:15.447Z,101446.41
2023-05-09T22:11:42.394Z,101447.30
2023-05-09T22:14:10.486Z,101446.95
2023-05-09T22:16:38.228Z,101450.09
2023-05-09T22:19:05.485Z,101448.69
2023-05-09T22:21:32.522Z,101449.19
2023-05-09T22:23:59.368Z,101447.54
2023-05-09T22:26:26.412Z,101444.68
2023-05-09T22:28:53.763Z,101443.92
2023-05-09T22:31:20.895Z,101441.92
2023-05-09T22:33:47.917Z,101441.98
2023-05-09T22:36:14.812Z,101444.48
2023-05-09T22:38:42.583Z,101438.65
2023-05-09T22:41:09.478Z,101437.79
2023-05-09T22:43:39.360Z,101438.16
2023-05-09T22:46:06.765Z,101434.08
2023-05-09T22:48:33.913Z,101433.11
2023-05-09T22:51:00.771Z,101431.81
2023-05-09T22:53:28.259Z,101431.46
2023-05-09T22:55:55.373Z,101427.25
2023-05-09T22:58:22.722Z,101427.23
2023-05-09T23:00:49.938Z,101426.21
2023-05-09T23:03:17.597Z,101426.21
2023-05-09T23:05:44.476Z,101424.06
2023-05-09T23:08:11.363Z,101425.14
2023-05-09T23:10:38.402Z,101424.77
2023-05-09T23:13:05.417Z,101423.52
2023-05-09T23:15:32.488Z,101421.64
2023-05-09T23:17:59.454Z,101419.87
2023-05-09T23:20:26.741Z,101416.98
2023-05-09T23:22:53.634Z,101413.83
2023-05-09T23:25:20.815Z,101415.52
2023-05-09T23:27:48.383Z,101417.38
2023-05-09T23:30:15.490Z,101415.67
2023-05-09T23:32:42.670Z,101413.41
2023-05-09T23:35:10.216Z,101410.25
2023-05-09T23:37:37.158Z,101410.55
2023-05-09T23:40:04.784Z,101410.04
2023-05-09T23:42:31.663Z,101413.45
2023-05-09T23:44:59.757Z,101412.67
2023-05-09T23:47:27.010Z,101408.20
2023-05-09T23:49:53.947Z,101409.16
2023-05-09T23:52:20.787Z,101403.92
2023-05-09T23:54:47.650Z,101400.98
2023-05-09T23:57:14.626Z,101400.02
2023-05-09T23:59:42.754Z,101394.36
